createdAt,value
2022-09-05T00:00:31.186Z,95766.00
2022-09-05T00:03:24.209Z,95761.80
2022-09-05T00:06:12.717Z,95759.00
2022-09-05T00:09:16.422Z,95758.20
2022-09-05T00:11:56.959Z,95757.40
2022-09-05T00:15:17.687Z,95756.80
2022-09-05T00:22:21.703Z,95755.00
2022-09-05T00:24:28.182Z,95752.20
2022-09-05T00:25:00.849Z,95753.20
2022-09-05T00:27:56.641Z,95745.60
2022-09-05T00:31:07.016Z,95749.00
2022-09-05T00:33:58.871Z,95749.60
2022-09-05T00:36:43.427Z,95752.40
2022-09-05T00:39:19.110Z,95748.80
2022-09-05T00:41:54.669Z,95747.60
2022-09-05T00:44:27.111Z,95746.80
2022-09-05T00:47:23.463Z,95744.60
2022-09-05T00:50:00.033Z,95742.20
2022-09-05T00:53:06.497Z,95744.00
2022-09-05T00:56:50.396Z,95745.00
2022-09-05T00:59:59.050Z,95744.80
2022-09-05T01:02:54.088Z,95742.00
2022-09-05T01:06:05.540Z,95743.80
2022-09-05T01:09:12.549Z,95744.20
2022-09-05T01:12:11.240Z,95742.00
2022-09-05T01:15:11.817Z,95745.60
2022-09-05T01:18:04.839Z,95744.00
2022-09-05T01:20:50.867Z,95744.00
2022-09-05T01:23:41.115Z,95749.20
2022-09-05T01:26:13.383Z,95750.00
2022-09-05T01:29:15.982Z,95750.20
2022-09-05T01:32:19.906Z,95749.80
2022-09-05T01:35:22.446Z,95751.20
2022-09-05T01:38:25.938Z,95748.40
2022-09-05T01:41:18.404Z,95745.80
2022-09-05T01:44:26.498Z,95747.60
2022-09-05T01:47:09.697Z,95751.40
2022-09-05T01:50:01.013Z,95747.00
2022-09-05T01:53:08.558Z,95741.80
2022-09-05T01:56:13.943Z,95742.00
2022-09-05T01:59:08.442Z,95746.20
2022-09-05T02:02:01.635Z,95748.20
2022-09-05T02:05:16.749Z,95749.20
2022-09-05T02:08:15.647Z,95754.00
2022-09-05T02:10:53.880Z,95755.40
2022-09-05T02:13:35.883Z,95753.00
2022-09-05T02:16:36.747Z,95752.80
2022-09-05T02:19:09.140Z,95755.40
2022-09-05T02:21:55.551Z,95755.60
2022-09-05T02:24:23.977Z,95751.00
2022-09-05T02:26:57.801Z,95756.80
2022-09-05T02:29:29.046Z,95757.00
2022-09-05T02:32:13.660Z,95757.80
2022-09-05T02:35:08.046Z,95754.40
2022-09-05T02:39:19.986Z,95752.80
2022-09-05T02:45:11.426Z,95755.60
2022-09-05T02:45:18.445Z,95752.60
2022-09-05T02:46:58.102Z,95752.60
2022-09-05T02:52:16.804Z,95754.00
2022-09-05T02:57:35.750Z,95759.00
2022-09-05T02:57:46.894Z,95756.80
2022-09-05T02:59:35.927Z,95760.80
2022-09-05T03:02:31.010Z,95760.00
2022-09-05T03:05:19.134Z,95755.40
2022-09-05T03:08:16.205Z,95753.60
2022-09-05T03:11:14.419Z,95751.60
2022-09-05T03:14:41.296Z,95754.40
2022-09-05T03:17:43.956Z,95755.60
2022-09-05T03:21:11.960Z,95763.00
2022-09-05T03:24:49.483Z,95762.60
2022-09-05T03:27:47.769Z,95766.80
2022-09-05T03:30:19.438Z,95763.80
2022-09-05T03:33:21.637Z,95764.80
2022-09-05T03:36:13.633Z,95763.00
2022-09-05T03:38:49.663Z,95774.20
2022-09-05T03:41:40.661Z,95767.80
2022-09-05T03:44:36.453Z,95762.80
2022-09-05T03:47:21.974Z,95763.00
2022-09-05T03:57:04.973Z,95763.00
2022-09-05T03:57:27.026Z,95759.80
2022-09-05T03:57:42.390Z,95761.80
2022-09-05T04:00:24.172Z,95760.60
2022-09-05T04:08:10.246Z,95764.40
2022-09-05T04:08:19.423Z,95761.00
2022-09-05T04:09:53.304Z,95752.40
2022-09-05T04:12:35.635Z,95751.80
2022-09-05T04:15:32.945Z,95749.40
2022-09-05T04:18:04.679Z,95748.60
2022-09-05T04:20:47.825Z,95744.80
2022-09-05T04:23:25.045Z,95751.60
2022-09-05T04:26:11.504Z,95749.40
2022-09-05T04:29:09.247Z,95752.60
2022-09-05T04:32:17.919Z,95748.80
2022-09-05T04:35:22.522Z,95754.00
2022-09-05T04:38:19.089Z,95752.60
2022-09-05T04:41:13.621Z,95748.40
2022-09-05T04:43:46.473Z,95748.40
2022-09-05T04:46:28.704Z,95750.40
2022-09-05T04:49:04.664Z,95752.40
2022-09-05T04:52:05.333Z,95756.00
2022-09-05T04:55:10.787Z,95757.20
2022-09-05T04:58:20.860Z,95762.00
2022-09-05T05:06:05.906Z,95766.60
2022-09-05T05:06:12.049Z,95767.60
2022-09-05T05:06:46.548Z,95772.60
2022-09-05T05:09:25.236Z,95778.40
2022-09-05T05:17:59.868Z,95776.20
2022-09-05T05:18:15.781Z,95777.80
2022-09-05T05:18:35.647Z,95778.00
2022-09-05T05:21:14.040Z,95783.40
2022-09-05T05:23:49.797Z,95787.00
2022-09-05T05:26:33.238Z,95787.80
2022-09-05T05:29:10.706Z,95788.60
2022-09-05T05:31:48.170Z,95794.60
2022-09-05T05:34:27.511Z,95795.80
2022-09-05T05:37:37.309Z,95803.40
2022-09-05T05:40:10.660Z,95802.00
2022-09-05T05:42:40.822Z,95806.40
2022-09-05T05:45:25.890Z,95803.60
2022-09-05T05:48:01.058Z,95805.20
2022-09-05T05:50:47.693Z,95804.40
2022-09-05T05:53:43.565Z,95806.80
2022-09-05T05:56:32.521Z,95800.80
2022-09-05T05:59:24.604Z,95803.40
2022-09-05T06:02:16.358Z,95804.00
2022-09-05T06:04:49.215Z,95806.20
2022-09-05T06:10:17.712Z,95809.80
2022-09-05T06:14:56.050Z,95810.20
2022-09-05T06:15:08.744Z,95803.00
2022-09-05T06:18:21.146Z,95811.20
2022-09-05T06:22:08.299Z,95805.20
2022-09-05T06:24:27.272Z,95798.20
2022-09-05T06:27:14.136Z,95792.80
2022-09-05T06:29:58.589Z,95786.40
2022-09-05T06:33:06.370Z,95795.60
2022-09-05T06:35:52.770Z,95792.40
2022-09-05T06:38:44.983Z,95793.60
2022-09-05T06:41:35.770Z,95793.20
2022-09-05T06:44:37.095Z,95791.40
2022-09-05T06:47:25.988Z,95795.00
2022-09-05T06:50:26.988Z,95790.40
2022-09-05T06:54:06.873Z,95795.00
2022-09-05T06:56:50.033Z,95796.60
2022-09-05T07:00:05.725Z,95799.60
2022-09-05T07:02:59.523Z,95797.60
2022-09-05T07:06:19.459Z,95803.60
2022-09-05T07:08:56.156Z,95805.40
2022-09-05T07:11:34.595Z,95804.60
2022-09-05T07:14:21.109Z,95809.80
2022-09-05T07:17:20.403Z,95810.40
2022-09-05T07:20:00.842Z,95815.20
2022-09-05T07:22:48.205Z,95817.60
2022-09-05T07:25:26.751Z,95817.20
2022-09-05T07:28:28.772Z,95818.80
2022-09-05T07:31:03.122Z,95824.20
2022-09-05T07:33:31.634Z,95824.60
2022-09-05T07:36:10.709Z,95824.20
2022-09-05T07:38:54.898Z,95825.80
2022-09-05T07:41:30.662Z,95826.00
2022-09-05T07:44:08.144Z,95831.60
2022-09-05T07:46:41.557Z,95831.40
2022-09-05T07:49:14.619Z,95828.20
2022-09-05T07:56:54.487Z,95831.60
2022-09-05T07:57:03.848Z,95830.80
2022-09-05T07:57:51.160Z,95830.40
2022-09-05T08:00:26.896Z,95836.00
2022-09-05T08:03:10.188Z,95828.20
2022-09-05T08:05:50.412Z,95828.40
2022-09-05T08:08:23.998Z,95832.80
2022-09-05T08:11:24.614Z,95832.00
2022-09-05T08:14:43.930Z,95825.20
2022-09-05T08:17:21.091Z,95824.60
2022-09-05T08:20:23.525Z,95818.20
2022-09-05T08:23:28.242Z,95823.80
2022-09-05T08:26:10.974Z,95816.60
2022-09-05T08:29:03.010Z,95814.20
2022-09-05T08:31:52.506Z,95816.40
2022-09-05T08:34:56.414Z,95811.60
2022-09-05T08:37:27.054Z,95807.60
2022-09-05T08:40:10.098Z,95808.60
2022-09-05T08:44:40.262Z,95805.20
2022-09-05T08:46:42.115Z,95808.20
2022-09-05T08:49:37.919Z,95810.40
2022-09-05T08:52:34.708Z,95804.80
2022-09-05T08:55:47.110Z,95801.60
2022-09-05T08:59:27.492Z,95795.00
2022-09-05T09:02:47.332Z,95799.20
2022-09-05T09:06:13.969Z,95801.00
2022-09-05T09:09:10.183Z,95801.80
2022-09-05T09:11:47.779Z,95803.20
2022-09-05T09:14:38.075Z,95796.00
2022-09-05T09:17:43.459Z,95793.40
2022-09-05T09:20:54.433Z,95790.60
2022-09-05T09:23:50.257Z,95793.80
2022-09-05T09:26:28.299Z,95796.40
2022-09-05T09:29:08.827Z,95786.20
2022-09-05T09:31:59.983Z,95787.60
2022-09-05T09:34:26.655Z,95790.00
2022-09-05T09:37:46.594Z,95788.40
2022-09-05T09:40:29.598Z,95790.40
2022-09-05T09:43:29.604Z,95789.00
2022-09-05T09:46:27.426Z,95785.60
2022-09-05T09:49:22.773Z,95790.60
2022-09-05T09:52:24.564Z,95790.80
2022-09-05T09:55:58.567Z,95786.40
2022-09-05T09:58:37.106Z,95788.80
2022-09-05T10:01:54.344Z,95792.40
2022-09-05T10:10:34.136Z,95796.00
2022-09-05T10:10:55.123Z,95792.60
2022-09-05T10:14:50.798Z,95790.20
2022-09-05T10:17:39.096Z,95794.20
2022-09-05T10:20:55.235Z,95795.20
2022-09-05T10:23:45.900Z,95786.60
2022-09-05T10:27:02.011Z,95789.40
2022-09-05T10:29:55.580Z,95792.00
2022-09-05T10:35:11.370Z,95787.60
2022-09-05T10:35:43.771Z,95786.40
2022-09-05T10:38:18.630Z,95784.60
2022-09-05T10:41:19.756Z,95784.40
2022-09-05T10:44:13.614Z,95781.60
2022-09-05T10:47:10.819Z,95774.00
2022-09-05T10:49:45.068Z,95774.20
2022-09-05T10:52:32.244Z,95775.20
2022-09-05T10:55:26.269Z,95771.40
2022-09-05T10:59:53.312Z,95775.40
2022-09-05T11:02:28.366Z,95772.20
2022-09-05T11:05:06.709Z,95766.00
2022-09-05T11:07:43.369Z,95759.20
2022-09-05T11:10:34.229Z,95757.20
2022-09-05T11:13:31.743Z,95754.60
2022-09-05T11:16:21.844Z,95754.20
2022-09-05T11:19:04.996Z,95754.20
2022-09-05T11:21:49.516Z,95757.40
2022-09-05T11:24:50.021Z,95753.40
2022-09-05T11:27:33.325Z,95755.40
2022-09-05T11:30:29.153Z,95755.80
2022-09-05T11:39:46.915Z,95753.20
2022-09-05T11:39:59.172Z,95747.20
2022-09-05T11:40:31.080Z,95744.40
2022-09-05T11:43:17.974Z,95735.00
2022-09-05T11:46:26.249Z,95741.60
2022-09-05T11:49:07.941Z,95738.60
2022-09-05T11:51:54.392Z,95735.20
2022-09-05T11:54:49.355Z,95731.80
2022-09-05T11:57:38.677Z,95736.20
2022-09-05T12:03:58.738Z,95726.20
2022-09-05T12:07:03.699Z,95724.20
2022-09-05T12:10:43.664Z,95721.80
2022-09-05T12:13:17.037Z,95716.80
2022-09-05T12:15:53.443Z,95721.20
2022-09-05T12:19:37.790Z,95718.60
2022-09-05T12:22:35.409Z,95710.40
2022-09-05T12:26:04.332Z,95710.00
2022-09-05T12:29:26.015Z,95705.40
2022-09-05T12:32:49.518Z,95703.00
2022-09-05T12:36:06.180Z,95702.80
2022-09-05T12:40:45.100Z,95702.20
2022-09-05T12:41:35.536Z,95726.40
2022-09-05T12:41:36.677Z,95703.40
2022-09-05T12:44:38.565Z,95708.00
2022-09-05T12:46:03.432Z,95708.40
2022-09-05T12:48:39.409Z,95704.60
2022-09-05T12:51:46.471Z,95703.80
2022-09-05T12:54:24.502Z,95703.40
2022-09-05T13:01:12.714Z,95699.60
2022-09-05T13:03:13.876Z,95695.20
2022-09-05T13:03:31.745Z,95693.60
2022-09-05T13:06:09.505Z,95692.60
2022-09-05T13:08:59.049Z,95695.60
2022-09-05T13:14:57.343Z,95687.60
2022-09-05T13:15:00.998Z,95694.60
2022-09-05T13:17:44.381Z,95685.80
2022-09-05T13:20:34.288Z,95682.00
2022-09-05T13:23:11.495Z,95677.60
2022-09-05T13:25:43.013Z,95675.80
2022-09-05T13:28:13.159Z,95669.60
2022-09-05T13:34:05.837Z,95672.00
2022-09-05T13:38:13.079Z,95664.60
2022-09-05T13:38:14.612Z,95666.00
2022-09-05T13:39:54.663Z,95663.80
2022-09-05T13:42:26.924Z,95666.60
2022-09-05T13:45:00.923Z,95664.40
2022-09-05T13:47:51.046Z,95664.40
2022-09-05T13:50:43.797Z,95656.00
2022-09-05T13:53:46.279Z,95656.00
2022-09-05T13:56:32.260Z,95650.60
2022-09-05T13:59:14.120Z,95647.20
2022-09-05T14:05:53.481Z,95642.20
2022-09-05T14:08:44.138Z,95638.00
2022-09-05T14:11:47.237Z,95635.20
2022-09-05T14:20:28.773Z,95624.80
2022-09-05T14:23:05.618Z,95623.20
2022-09-05T14:25:44.292Z,95619.60
2022-09-05T14:28:20.459Z,95615.40
2022-09-05T14:31:09.640Z,95619.60
2022-09-05T14:37:40.803Z,95619.20
2022-09-05T14:37:51.825Z,95624.40
2022-09-05T14:40:39.723Z,95624.80
2022-09-05T14:43:30.417Z,95624.60
2022-09-05T14:46:39.407Z,95622.40
2022-09-05T14:49:21.356Z,95621.00
2022-09-05T14:51:51.949Z,95624.20
2022-09-05T15:01:13.350Z,95621.20
2022-09-05T15:02:46.197Z,95617.80
2022-09-05T15:03:05.063Z,95621.00
2022-09-05T15:05:43.155Z,95619.80
2022-09-05T15:10:02.361Z,95616.80
2022-09-05T15:12:15.728Z,95616.80
2022-09-05T15:14:11.943Z,95617.20
2022-09-05T15:16:43.635Z,95618.80
2022-09-05T15:20:05.020Z,95611.40
2022-09-05T15:22:41.951Z,95612.00
2022-09-05T15:25:17.532Z,95604.60
2022-09-05T15:27:46.335Z,95608.20
2022-09-05T15:30:25.585Z,95607.20
2022-09-05T15:33:31.435Z,95602.40
2022-09-05T15:36:00.028Z,95598.80
2022-09-05T15:38:54.318Z,95600.00
2022-09-05T15:41:25.158Z,95592.60
2022-09-05T15:44:02.913Z,95587.00
2022-09-05T15:46:53.331Z,95587.40
2022-09-05T15:49:36.064Z,95583.80
2022-09-05T15:52:18.173Z,95586.00
2022-09-05T15:54:50.215Z,95585.40
2022-09-05T15:57:26.795Z,95586.00
2022-09-05T15:59:57.780Z,95584.40
2022-09-05T16:02:29.571Z,95592.00
2022-09-05T16:10:31.737Z,95590.80
2022-09-05T16:10:38.971Z,95589.40
2022-09-05T16:15:19.882Z,95596.40
2022-09-05T16:23:18.047Z,95591.60
2022-09-05T16:23:28.262Z,95591.60
2022-09-05T16:23:49.920Z,95592.20
2022-09-05T16:26:27.172Z,95589.20
2022-09-05T16:29:06.192Z,95588.60
2022-09-05T16:31:50.788Z,95588.20
2022-09-05T16:34:54.206Z,95590.00
2022-09-05T16:37:49.241Z,95591.20
2022-09-05T16:40:38.976Z,95590.80
2022-09-05T16:43:08.457Z,95590.40
2022-09-05T16:46:07.769Z,95583.40
2022-09-05T16:49:14.393Z,95586.20
2022-09-05T16:51:50.398Z,95588.80
2022-09-05T16:54:54.875Z,95588.40
2022-09-05T16:57:31.010Z,95583.40
2022-09-05T16:59:58.166Z,95582.60
2022-09-05T17:02:29.584Z,95579.80
2022-09-05T17:05:18.335Z,95580.00
2022-09-05T17:08:02.667Z,95578.40
2022-09-05T17:10:57.384Z,95576.20
2022-09-05T17:13:56.350Z,95577.80
2022-09-05T17:16:56.412Z,95581.40
2022-09-05T17:19:31.188Z,95582.40
2022-09-05T17:24:59.599Z,95580.40
2022-09-05T17:29:34.130Z,95575.40
2022-09-05T17:30:35.874Z,95573.40
2022-09-05T17:31:54.420Z,95569.80
2022-09-05T17:34:34.888Z,95572.40
2022-09-05T17:37:39.488Z,95568.20
2022-09-05T17:40:48.339Z,95573.40
2022-09-05T17:43:33.178Z,95572.40
2022-09-05T17:46:15.701Z,95577.40
2022-09-05T17:49:11.451Z,95575.00
2022-09-05T17:51:51.751Z,95577.60
2022-09-05T17:54:29.623Z,95579.60
2022-09-05T17:56:56.501Z,95579.00
2022-09-05T17:59:27.160Z,95576.00
2022-09-05T18:02:02.875Z,95573.20
2022-09-05T18:04:51.150Z,95575.40
2022-09-05T18:07:28.543Z,95575.60
2022-09-05T18:10:12.938Z,95580.80
2022-09-05T18:13:13.191Z,95582.60
2022-09-05T18:15:36.177Z,95588.00
2022-09-05T18:18:08.432Z,95591.20
2022-09-05T18:21:12.481Z,95588.80
2022-09-05T18:23:54.734Z,95591.80
2022-09-05T18:26:25.201Z,95592.20
2022-09-05T18:29:08.034Z,95594.00
2022-09-05T18:31:43.675Z,95598.40
2022-09-05T18:34:14.631Z,95594.80
2022-09-05T18:36:51.163Z,95593.40
2022-09-05T18:39:24.335Z,95594.00
2022-09-05T18:42:26.367Z,95595.40
2022-09-05T18:45:15.510Z,95598.60
2022-09-05T18:47:51.253Z,95597.00
2022-09-05T18:50:32.389Z,95593.80
2022-09-05T18:53:10.340Z,95592.80
2022-09-05T18:56:12.398Z,95596.80
2022-09-05T18:59:15.536Z,95593.60
2022-09-05T19:02:02.098Z,95593.60
2022-09-05T19:04:44.946Z,95589.60
2022-09-05T19:07:23.362Z,95591.40
2022-09-05T19:10:34.848Z,95594.60
2022-09-05T19:13:19.455Z,95592.60
2022-09-05T19:16:02.245Z,95594.60
2022-09-05T19:19:11.344Z,95589.00
2022-09-05T19:22:33.241Z,95590.60
2022-09-05T19:24:46.158Z,95594.60
2022-09-05T19:28:02.797Z,95594.40
2022-09-05T19:36:45.641Z,95597.80
2022-09-05T19:37:03.294Z,95594.40
2022-09-05T19:37:12.358Z,95596.60
2022-09-05T19:38:53.447Z,95601.40
2022-09-05T19:47:29.203Z,95599.40
2022-09-05T19:47:38.543Z,95594.40
2022-09-05T19:47:56.129Z,95595.40
2022-09-05T19:50:12.426Z,95591.60
2022-09-05T19:52:39.852Z,95592.80
2022-09-05T19:55:37.913Z,95586.60
2022-09-05T19:58:20.015Z,95581.40
2022-09-05T20:01:01.438Z,95578.60
2022-09-05T20:03:38.661Z,95577.80
2022-09-05T20:06:38.719Z,95577.20
2022-09-05T20:09:21.247Z,95575.00
2022-09-05T20:11:58.067Z,95576.80
2022-09-05T20:14:32.030Z,95574.20
2022-09-05T20:17:29.583Z,95573.40
2022-09-05T20:20:25.933Z,95575.60
2022-09-05T20:23:03.263Z,95575.20
2022-09-05T20:25:39.937Z,95570.80
2022-09-05T20:28:11.814Z,95572.00
2022-09-05T20:30:46.467Z,95574.60
2022-09-05T20:33:28.428Z,95569.20
2022-09-05T20:40:56.297Z,95566.40
2022-09-05T20:43:23.236Z,95558.00
2022-09-05T20:43:24.927Z,95567.60
2022-09-05T20:44:51.313Z,95560.80
2022-09-05T20:53:36.729Z,95563.60
2022-09-05T20:54:18.231Z,95568.40
2022-09-05T20:54:22.767Z,95566.40
2022-09-05T20:56:22.646Z,95568.60
2022-09-05T20:58:51.192Z,95567.80
2022-09-05T21:01:23.427Z,95568.00
2022-09-05T21:04:01.842Z,95569.00
2022-09-05T21:06:35.026Z,95566.80
2022-09-05T21:09:24.444Z,95567.00
2022-09-05T21:11:55.908Z,95561.20
2022-09-05T21:14:24.699Z,95561.40
2022-09-05T21:17:01.233Z,95558.20
2022-09-05T21:19:41.459Z,95556.20
2022-09-05T21:22:23.969Z,95558.60
2022-09-05T21:25:44.293Z,95558.80
2022-09-05T21:28:38.613Z,95556.80
2022-09-05T21:31:15.134Z,95559.40
2022-09-05T21:33:45.384Z,95561.60
2022-09-05T21:36:15.206Z,95562.40
2022-09-05T21:38:42.984Z,95563.40
2022-09-05T21:41:14.361Z,95563.40
2022-09-05T21:47:34.943Z,95560.20
2022-09-05T21:47:44.824Z,95563.00
2022-09-05T21:49:21.159Z,95564.00
2022-09-05T21:51:52.107Z,95560.60
2022-09-05T21:59:19.269Z,95553.60
2022-09-05T21:59:30.191Z,95561.20
2022-09-05T22:00:14.477Z,95560.00
2022-09-05T22:02:49.449Z,95562.40
2022-09-05T22:05:17.319Z,95556.40
2022-09-05T22:07:44.091Z,95551.80
2022-09-05T22:10:11.428Z,95555.40
2022-09-05T22:12:39.119Z,95555.00
2022-09-05T22:15:28.476Z,95544.80
2022-09-05T22:18:16.780Z,95542.00
2022-09-05T22:20:53.444Z,95543.20
2022-09-05T22:23:38.522Z,95542.40
2022-09-05T22:26:05.912Z,95543.80
2022-09-05T22:28:35.081Z,95549.80
2022-09-05T22:31:07.517Z,95546.80
2022-09-05T22:33:35.965Z,95543.80
2022-09-05T22:36:03.815Z,95543.20
2022-09-05T22:38:30.721Z,95540.00
2022-09-05T22:40:57.598Z,95536.00
2022-09-05T22:43:25.391Z,95538.60
2022-09-05T22:45:56.256Z,95533.20
2022-09-05T22:48:24.392Z,95528.40
2022-09-05T22:50:52.077Z,95531.00
2022-09-05T22:53:18.822Z,95533.60
2022-09-05T22:55:45.498Z,95533.20
2022-09-05T22:58:15.115Z,95532.00
2022-09-05T23:00:44.484Z,95531.60
2022-09-05T23:03:11.212Z,95531.60
2022-09-05T23:05:37.890Z,95528.60
2022-09-05T23:08:05.999Z,95531.60
2022-09-05T23:10:34.416Z,95539.60
2022-09-05T23:13:06.544Z,95534.40
2022-09-05T23:15:34.474Z,95533.80
2022-09-05T23:18:01.706Z,95533.60
2022-09-05T23:20:31.296Z,95532.80
2022-09-05T23:23:04.455Z,95530.60
2022-09-05T23:25:31.601Z,95523.60
2022-09-05T23:27:58.414Z,95521.60
2022-09-05T23:30:25.175Z,95519.60
2022-09-05T23:32:52.330Z,95524.80
2022-09-05T23:35:19.610Z,95516.60
2022-09-05T23:37:47.882Z,95519.20
2022-09-05T23:40:21.775Z,95519.80
2022-09-05T23:42:57.645Z,95514.20
2022-09-05T23:45:26.515Z,95513.80
2022-09-05T23:47:53.999Z,95513.40
2022-09-05T23:50:21.050Z,95512.00
2022-09-05T23:52:48.081Z,95510.80
2022-09-05T23:55:17.895Z,95506.20
2022-09-05T23:57:45.432Z,95507.40
